Spurgeon, Indiana
Current Conditions -  °F | °C
As of 4:35 PM on Sunday 23 Nov 2014 (Local Time) from KHNB Reporting Station
Overcast Overcast  
Wind Chill: 55°   Ceiling: 1600
Heat Index: 55°   Visibility: 8mi
Dew Point: 52°   Wind: 15mph
Humidity: 88%   Direction: 120°ESE
Pressure: 29.39"   Gusts: 21mph
Location:  38.25°N, 87.26°W
Report Text: KHNB 232235Z AUTO 12013G18KT 8SM FEW007 OVC016 13/11 A2939 RMK AO1 P0008
Loading
Personal Weather Stations






























Interactive Weather Map New forecast layout! Learn more

10-Day Weather Forecast

Advertisements
Track Severe Weather on mobile